Snow/Ice From: 17-12-2017 10:00 Until: 18-12-2017 06:00 warning for: Snow/Ice Level: Yellow info button

Although rather usual in this region, locally or potentially dangerous phenomena are expected. (such as local winds, summer thunderstorms, rising streams or high waves) Be aware and pay attention to the latest weather updates, especially if you carry out activities exposed to weather or close to a stream or shoreline. 


Meteo18 Weather Cam more information Meteo18 Weather Cam


Thunder radar more information blitzortung!


warning for Snow/Ice more information rain snow radar


Visit our other weather sites:

Template documentation
and downloads

And another site



Weather Underground History page Text

Daily Summary for June 30, 2017 Units:  Both    English   Metric
« Previous Day
Next Day »
Daily Weekly Monthly Yearly Custom
  High: Low: Average:
Temperature: 62.8 °F /  17.1 °C 53.6 °F /  12.0 °C 57 °F /  13.9 °C
Dew Point: 57.7 °F /  14.3 °C 50.5 °F /  10.3 °C 53.6 °F /  12 °C
Humidity: 95 % 79 % 89 %
Wind Speed: 16 mph /  25.7 km/h - 5.5 mph /  8.8 km/h
Wind Gust: 25 mph /  40.2 km/h - -
Wind:- - SW
Pressure: 29.9 in /  1013.1 hPa 29.7 in /  1005.6 hPa -
Precipitation: 0.42 in /  10.7 mm    
Historical Graphs
 
 
Tabular Data for June 30, 2017
Time Temperature Dew Point Pressure Wind Wind Speed Wind Gust Humidity Rainfall Rate (Hourly)
00:02 57.6 °F /  14.2 °C 52.5 °F /  11.4 °C 29.7 in /  1006.0 hPa SSW 6 mph /  9.7 km/h 16 mph /  25.7 km/h 83 % 0 in /  0.0 mm
00:12 57.6 °F /  14.2 °C 52.2 °F /  11.2 °C 29.7 in /  1006.0 hPa SSW 10 mph /  16.1 km/h 14 mph /  22.5 km/h 82 % 0 in /  0.0 mm
00:17 57.2 °F /  14.0 °C 52.2 °F /  11.2 °C 29.7 in /  1006.0 hPa SSW 7 mph /  11.3 km/h 16 mph /  25.7 km/h 83 % 0 in /  0.0 mm
00:22 57 °F /  13.9 °C 52 °F /  11.1 °C 29.7 in /  1006.0 hPa SW 8 mph /  12.9 km/h 16 mph /  25.7 km/h 83 % 0 in /  0.0 mm
00:32 56.7 °F /  13.7 °C 51.6 °F /  10.9 °C 29.7 in /  1006.0 hPa South 6 mph /  9.7 km/h 16 mph /  25.7 km/h 83 % 0 in /  0.0 mm
00:42 55.8 °F /  13.2 °C 51.3 °F /  10.7 °C 29.7 in /  1006.3 hPa SSW 4 mph /  6.4 km/h 16 mph /  25.7 km/h 85 % 0 in /  0.0 mm
00:52 55.2 °F /  12.9 °C 51.4 °F /  10.8 °C 29.7 in /  1006.3 hPa SSW 2 mph /  3.2 km/h 12 mph /  19.3 km/h 87 % 0 in /  0.0 mm
00:57 55.2 °F /  12.9 °C 51.4 °F /  10.8 °C 29.7 in /  1006.3 hPa SW 6 mph /  9.7 km/h 8 mph /  12.9 km/h 87 % 0 in /  0.0 mm
01:02 55.2 °F /  12.9 °C 51.4 °F /  10.8 °C 29.7 in /  1006.3 hPa SSW 5 mph /  8.0 km/h 8 mph /  12.9 km/h 87 % 0 in /  0.0 mm
01:07 55.2 °F /  12.9 °C 51.4 °F /  10.8 °C 29.7 in /  1006.3 hPa SSW 8 mph /  12.9 km/h 10 mph /  16.1 km/h 87 % 0 in /  0.0 mm
01:12 55.2 °F /  12.9 °C 51.4 °F /  10.8 °C 29.7 in /  1006.0 hPa SSW 3 mph /  4.8 km/h 10 mph /  16.1 km/h 87 % 0 in /  0.0 mm
01:17 55 °F /  12.8 °C 51.3 °F /  10.7 °C 29.7 in /  1006.3 hPa SSW 2 mph /  3.2 km/h 10 mph /  16.1 km/h 87 % 0 in /  0.0 mm
01:22 54.9 °F /  12.7 °C 51.1 °F /  10.6 °C 29.7 in /  1006.3 hPa SW 3 mph /  4.8 km/h 10 mph /  16.1 km/h 87 % 0 in /  0.0 mm
01:32 54.7 °F /  12.6 °C 50.9 °F /  10.5 °C 29.7 in /  1006.3 hPa South 2 mph /  3.2 km/h 10 mph /  16.1 km/h 87 % 0 in /  0.0 mm
01:37 54.5 °F /  12.5 °C 51.1 °F /  10.6 °C 29.7 in /  1006.3 hPa Calm   8 mph /  12.9 km/h 88 % 0 in /  0.0 mm
01:42 54.1 °F /  12.3 °C 50.7 °F /  10.4 °C 29.7 in /  1006.7 hPa Calm   8 mph /  12.9 km/h 88 % 0 in /  0.0 mm
01:47 54 °F /  12.2 °C 50.7 °F /  10.4 °C 29.7 in /  1006.7 hPa SW 3 mph /  4.8 km/h 5 mph /  8.0 km/h 89 % 0 in /  0.0 mm
01:52 54 °F /  12.2 °C 50.7 °F /  10.4 °C 29.7 in /  1006.7 hPa SE 2 mph /  3.2 km/h 5 mph /  8.0 km/h 89 % 0 in /  0.0 mm
01:57 54 °F /  12.2 °C 50.7 °F /  10.4 °C 29.7 in /  1006.7 hPa South 2 mph /  3.2 km/h 5 mph /  8.0 km/h 89 % 0 in /  0.0 mm
02:02 54.1 °F /  12.3 °C 50.9 °F /  10.5 °C 29.7 in /  1006.7 hPa SSW 1 mph /  1.6 km/h 5 mph /  8.0 km/h 89 % 0 in /  0.0 mm
02:12 54.1 °F /  12.3 °C 50.9 °F /  10.5 °C 29.7 in /  1006.7 hPa SSW 1 mph /  1.6 km/h 7 mph /  11.3 km/h 89 % 0 in /  0.0 mm
02:17 54 °F /  12.2 °C 50.7 °F /  10.4 °C 29.7 in /  1006.7 hPa SSW 1 mph /  1.6 km/h 7 mph /  11.3 km/h 89 % 0 in /  0.0 mm
02:22 53.8 °F /  12.1 °C 50.5 °F /  10.3 °C 29.7 in /  1006.3 hPa SW 2 mph /  3.2 km/h 6 mph /  9.7 km/h 89 % 0 in /  0.0 mm
02:27 53.6 °F /  12.0 °C 50.7 °F /  10.4 °C 29.7 in /  1006.3 hPa SSW 2 mph /  3.2 km/h 5 mph /  8.0 km/h 90 % 0 in /  0.0 mm
02:32 54 °F /  12.2 °C 51.1 °F /  10.6 °C 29.7 in /  1006.3 hPa ESE 6 mph /  9.7 km/h 6 mph /  9.7 km/h 90 % 0 in /  0.0 mm
02:37 54.1 °F /  12.3 °C 50.9 °F /  10.5 °C 29.7 in /  1006.3 hPa SSW 2 mph /  3.2 km/h 9 mph /  14.5 km/h 89 % 0 in /  0.0 mm
02:42 54.3 °F /  12.4 °C 50.9 °F /  10.5 °C 29.7 in /  1006.3 hPa SSW 6 mph /  9.7 km/h 9 mph /  14.5 km/h 88 % 0 in /  0.0 mm
02:47 54.7 °F /  12.6 °C 51.3 °F /  10.7 °C 29.7 in /  1006.3 hPa SSW 4 mph /  6.4 km/h 9 mph /  14.5 km/h 88 % 0 in /  0.0 mm
02:52 54.7 °F /  12.6 °C 51.3 °F /  10.7 °C 29.7 in /  1006.3 hPa SSW 2 mph /  3.2 km/h 9 mph /  14.5 km/h 88 % 0 in /  0.0 mm
02:57 54.7 °F /  12.6 °C 51.3 °F /  10.7 °C 29.7 in /  1006.3 hPa South 2 mph /  3.2 km/h 10 mph /  16.1 km/h 88 % 0 in /  0.0 mm
03:02 54.7 °F /  12.6 °C 50.9 °F /  10.5 °C 29.7 in /  1006.3 hPa South 3 mph /  4.8 km/h 10 mph /  16.1 km/h 87 % 0 in /  0.0 mm
03:12 54.7 °F /  12.6 °C 51.3 °F /  10.7 °C 29.7 in /  1006.3 hPa SSW 3 mph /  4.8 km/h 10 mph /  16.1 km/h 88 % 0 in /  0.0 mm
03:17 54.5 °F /  12.5 °C 51.1 °F /  10.6 °C 29.7 in /  1006.3 hPa SSW 4 mph /  6.4 km/h 8 mph /  12.9 km/h 88 % 0 in /  0.0 mm
03:22 54.3 °F /  12.4 °C 50.9 °F /  10.5 °C 29.7 in /  1006.0 hPa SSW 4 mph /  6.4 km/h 8 mph /  12.9 km/h 88 % 0 in /  0.0 mm
03:27 54.3 °F /  12.4 °C 50.9 °F /  10.5 °C 29.7 in /  1006.0 hPa SSE 1 mph /  1.6 km/h 7 mph /  11.3 km/h 88 % 0 in /  0.0 mm
03:32 54.3 °F /  12.4 °C 50.9 °F /  10.5 °C 29.7 in /  1006.0 hPa SSW 4 mph /  6.4 km/h 7 mph /  11.3 km/h 88 % 0 in /  0.0 mm
03:42 54.7 °F /  12.6 °C 51.3 °F /  10.7 °C 29.7 in /  1006.0 hPa South 3 mph /  4.8 km/h 7 mph /  11.3 km/h 88 % 0 in /  0.0 mm
03:47 54.7 °F /  12.6 °C 51.3 °F /  10.7 °C 29.7 in /  1006.0 hPa SE 2 mph /  3.2 km/h 7 mph /  11.3 km/h 88 % 0 in /  0.0 mm
03:52 54.9 °F /  12.7 °C 51.1 °F /  10.6 °C 29.7 in /  1006.0 hPa SSW 1 mph /  1.6 km/h 9 mph /  14.5 km/h 87 % 0 in /  0.0 mm
03:57 54.7 °F /  12.6 °C 50.9 °F /  10.5 °C 29.7 in /  1006.0 hPa SSW 5 mph /  8.0 km/h 9 mph /  14.5 km/h 87 % 0 in /  0.0 mm
04:02 54.7 °F /  12.6 °C 50.9 °F /  10.5 °C 29.7 in /  1006.0 hPa SSW 3 mph /  4.8 km/h 9 mph /  14.5 km/h 87 % 0 in /  0.0 mm
04:12 54.7 °F /  12.6 °C 50.9 °F /  10.5 °C 29.7 in /  1005.6 hPa SW 6 mph /  9.7 km/h 9 mph /  14.5 km/h 87 % 0 in /  0.0 mm
04:17 54.9 °F /  12.7 °C 51.1 °F /  10.6 °C 29.7 in /  1005.6 hPa South 3 mph /  4.8 km/h 14 mph /  22.5 km/h 87 % 0 in /  0.0 mm
04:22 54.9 °F /  12.7 °C 51.1 °F /  10.6 °C 29.7 in /  1005.6 hPa SSE 4 mph /  6.4 km/h 14 mph /  22.5 km/h 87 % 0 in /  0.0 mm
04:32 55.6 °F /  13.1 °C 51.8 °F /  11.0 °C 29.7 in /  1005.6 hPa SSW 4 mph /  6.4 km/h 11 mph /  17.7 km/h 87 % 0 in /  0.0 mm
04:37 55.6 °F /  13.1 °C 51.8 °F /  11.0 °C 29.7 in /  1005.6 hPa SSW 5 mph /  8.0 km/h 14 mph /  22.5 km/h 87 % 0 in /  0.0 mm
04:42 55.6 °F /  13.1 °C 52.2 °F /  11.2 °C 29.7 in /  1005.6 hPa South 2 mph /  3.2 km/h 14 mph /  22.5 km/h 88 % 0 in /  0.0 mm
04:47 55.4 °F /  13.0 °C 52 °F /  11.1 °C 29.7 in /  1005.6 hPa South 2 mph /  3.2 km/h 14 mph /  22.5 km/h 88 % 0 in /  0.0 mm
04:52 55.2 °F /  12.9 °C 51.8 °F /  11.0 °C 29.7 in /  1005.6 hPa SW 3 mph /  4.8 km/h 12 mph /  19.3 km/h 88 % 0 in /  0.0 mm
04:57 55.2 °F /  12.9 °C 51.8 °F /  11.0 °C 29.7 in /  1005.6 hPa SSW 3 mph /  4.8 km/h 12 mph /  19.3 km/h 88 % 0 in /  0.0 mm
05:02 55 °F /  12.8 °C 51.6 °F /  10.9 °C 29.7 in /  1005.6 hPa SW 4 mph /  6.4 km/h 11 mph /  17.7 km/h 88 % 0 in /  0.0 mm
05:12 55 °F /  12.8 °C 51.8 °F /  11.0 °C 29.7 in /  1005.6 hPa SSW 6 mph /  9.7 km/h 11 mph /  17.7 km/h 89 % 0 in /  0.0 mm
05:22 54.9 °F /  12.7 °C 52 °F /  11.1 °C 29.7 in /  1005.6 hPa SSW 5 mph /  8.0 km/h 9 mph /  14.5 km/h 90 % 0 in /  0.0 mm
05:32 54.7 °F /  12.6 °C 52.2 °F /  11.2 °C 29.7 in /  1005.6 hPa SE 4 mph /  6.4 km/h 9 mph /  14.5 km/h 91 % 0.02 in /  0.5 mm
05:42 54.3 °F /  12.4 °C 52 °F /  11.1 °C 29.7 in /  1005.6 hPa SSW 5 mph /  8.0 km/h 12 mph /  19.3 km/h 92 % 0.03 in /  0.8 mm
05:47 54.3 °F /  12.4 °C 52 °F /  11.1 °C 29.7 in /  1005.6 hPa SSE 5 mph /  8.0 km/h 12 mph /  19.3 km/h 92 % 0.03 in /  0.8 mm
05:52 54.1 °F /  12.3 °C 51.8 °F /  11.0 °C 29.7 in /  1005.6 hPa SW 3 mph /  4.8 km/h 11 mph /  17.7 km/h 92 % 0.05 in /  1.3 mm
06:02 54.1 °F /  12.3 °C 52.2 °F /  11.2 °C 29.7 in /  1005.6 hPa ESE 3 mph /  4.8 km/h 9 mph /  14.5 km/h 93 % 0.06 in /  1.5 mm
06:07 54 °F /  12.2 °C 52 °F /  11.1 °C 29.7 in /  1005.6 hPa SSE 3 mph /  4.8 km/h 9 mph /  14.5 km/h 93 % 0.06 in /  1.5 mm
06:17 54 °F /  12.2 °C 52.3 °F /  11.3 °C 29.7 in /  1005.6 hPa SW 6 mph /  9.7 km/h 10 mph /  16.1 km/h 94 % 0.08 in /  2.0 mm
06:22 54 °F /  12.2 °C 52.3 °F /  11.3 °C 29.7 in /  1005.6 hPa SSE 5 mph /  8.0 km/h 10 mph /  16.1 km/h 94 % 0.07 in /  1.8 mm
06:27 54 °F /  12.2 °C 52.3 °F /  11.3 °C 29.7 in /  1005.6 hPa SSW 3 mph /  4.8 km/h 11 mph /  17.7 km/h 94 % 0.07 in /  1.8 mm
06:32 54 °F /  12.2 °C 52.3 °F /  11.3 °C 29.7 in /  1005.6 hPa South 6 mph /  9.7 km/h 11 mph /  17.7 km/h 94 % 0.07 in /  1.8 mm
06:37 54 °F /  12.2 °C 52.3 °F /  11.3 °C 29.7 in /  1005.6 hPa SSW 4 mph /  6.4 km/h 11 mph /  17.7 km/h 94 % 0.06 in /  1.5 mm
06:42 54 °F /  12.2 °C 52.3 °F /  11.3 °C 29.7 in /  1005.6 hPa SSE 3 mph /  4.8 km/h 10 mph /  16.1 km/h 94 % 0.06 in /  1.5 mm
06:47 54.1 °F /  12.3 °C 52.5 °F /  11.4 °C 29.7 in /  1005.6 hPa SW 7 mph /  11.3 km/h 10 mph /  16.1 km/h 94 % 0.06 in /  1.5 mm
06:52 54.1 °F /  12.3 °C 52.5 °F /  11.4 °C 29.7 in /  1005.6 hPa SSW 4 mph /  6.4 km/h 11 mph /  17.7 km/h 94 % 0.02 in /  0.5 mm
07:02 54.3 °F /  12.4 °C 52.7 °F /  11.5 °C 29.7 in /  1005.6 hPa SSE 5 mph /  8.0 km/h 11 mph /  17.7 km/h 94 % 0.02 in /  0.5 mm
07:07 54.5 °F /  12.5 °C 52.9 °F /  11.6 °C 29.7 in /  1005.6 hPa South 5 mph /  8.0 km/h 11 mph /  17.7 km/h 94 % 0.02 in /  0.5 mm
07:17 54.7 °F /  12.6 °C 53.1 °F /  11.7 °C 29.7 in /  1005.6 hPa SSW 6 mph /  9.7 km/h 12 mph /  19.3 km/h 94 % 0 in /  0.0 mm
07:22 54.7 °F /  12.6 °C 53.1 °F /  11.7 °C 29.7 in /  1005.6 hPa South 7 mph /  11.3 km/h 10 mph /  16.1 km/h 94 % 0 in /  0.0 mm
07:32 54.7 °F /  12.6 °C 53.1 °F /  11.7 °C 29.7 in /  1005.6 hPa SSW 2 mph /  3.2 km/h 8 mph /  12.9 km/h 94 % 0.01 in /  0.3 mm
07:37 54.7 °F /  12.6 °C 53.1 °F /  11.7 °C 29.7 in /  1005.6 hPa SW 5 mph /  8.0 km/h 8 mph /  12.9 km/h 94 % 0.01 in /  0.3 mm
07:42 54.9 °F /  12.7 °C 53.2 °F /  11.8 °C 29.7 in /  1005.6 hPa South 5 mph /  8.0 km/h 10 mph /  16.1 km/h 94 % 0.01 in /  0.3 mm
07:47 54.9 °F /  12.7 °C 53.2 °F /  11.8 °C 29.7 in /  1005.6 hPa SSW 3 mph /  4.8 km/h 10 mph /  16.1 km/h 94 % 0.01 in /  0.3 mm
07:52 54.9 °F /  12.7 °C 52.9 °F /  11.6 °C 29.7 in /  1005.6 hPa SSW 8 mph /  12.9 km/h 10 mph /  16.1 km/h 93 % 0.01 in /  0.3 mm
08:02 55 °F /  12.8 °C 53.1 °F /  11.7 °C 29.7 in /  1005.6 hPa SW 3 mph /  4.8 km/h 12 mph /  19.3 km/h 93 % 0.01 in /  0.3 mm
08:07 55.2 °F /  12.9 °C 53.2 °F /  11.8 °C 29.7 in /  1005.6 hPa SW 1 mph /  1.6 km/h 12 mph /  19.3 km/h 93 % 0.01 in /  0.3 mm
08:12 55.2 °F /  12.9 °C 53.2 °F /  11.8 °C 29.7 in /  1005.6 hPa South 4 mph /  6.4 km/h 11 mph /  17.7 km/h 93 % 0.01 in /  0.3 mm
08:17 55.2 °F /  12.9 °C 53.2 °F /  11.8 °C 29.7 in /  1006.0 hPa SSE 3 mph /  4.8 km/h 11 mph /  17.7 km/h 93 % 0.01 in /  0.3 mm
08:22 55.2 °F /  12.9 °C 53.2 °F /  11.8 °C 29.7 in /  1006.0 hPa SSE 7 mph /  11.3 km/h 12 mph /  19.3 km/h 93 % 0.01 in /  0.3 mm
08:32 55 °F /  12.8 °C 53.1 °F /  11.7 °C 29.7 in /  1006.0 hPa SSW 3 mph /  4.8 km/h 12 mph /  19.3 km/h 93 % 0.02 in /  0.5 mm
08:42 55 °F /  12.8 °C 53.1 °F /  11.7 °C 29.7 in /  1006.0 hPa WSW 5 mph /  8.0 km/h 11 mph /  17.7 km/h 93 % 0.03 in /  0.8 mm
08:47 54.9 °F /  12.7 °C 52.9 °F /  11.6 °C 29.7 in /  1006.0 hPa SE 3 mph /  4.8 km/h 11 mph /  17.7 km/h 93 % 0.03 in /  0.8 mm
08:52 54.9 °F /  12.7 °C 52.9 °F /  11.6 °C 29.7 in /  1006.0 hPa WSW 3 mph /  4.8 km/h 12 mph /  19.3 km/h 93 % 0.04 in /  1.0 mm
09:02 54.9 °F /  12.7 °C 53.2 °F /  11.8 °C 29.7 in /  1006.3 hPa South 3 mph /  4.8 km/h 12 mph /  19.3 km/h 94 % 0.06 in /  1.5 mm
09:12 55 °F /  12.8 °C 53.4 °F /  11.9 °C 29.7 in /  1006.3 hPa SSW 4 mph /  6.4 km/h 12 mph /  19.3 km/h 94 % 0.06 in /  1.5 mm
09:22 55 °F /  12.8 °C 53.4 °F /  11.9 °C 29.7 in /  1006.3 hPa SSE 6 mph /  9.7 km/h 10 mph /  16.1 km/h 94 % 0.06 in /  1.5 mm
09:32 55.2 °F /  12.9 °C 53.6 °F /  12.0 °C 29.7 in /  1006.3 hPa SE 3 mph /  4.8 km/h 10 mph /  16.1 km/h 94 % 0.06 in /  1.5 mm
09:37 55.2 °F /  12.9 °C 53.6 °F /  12.0 °C 29.7 in /  1006.3 hPa SE 7 mph /  11.3 km/h 10 mph /  16.1 km/h 94 % 0.06 in /  1.5 mm
09:42 55.2 °F /  12.9 °C 53.6 °F /  12.0 °C 29.7 in /  1006.3 hPa ESE 6 mph /  9.7 km/h 12 mph /  19.3 km/h 94 % 0.05 in /  1.3 mm
09:47 55.2 °F /  12.9 °C 53.6 °F /  12.0 °C 29.7 in /  1006.3 hPa South 7 mph /  11.3 km/h 12 mph /  19.3 km/h 94 % 0.05 in /  1.3 mm
09:52 55.2 °F /  12.9 °C 53.6 °F /  12.0 °C 29.7 in /  1006.3 hPa SSW 1 mph /  1.6 km/h 12 mph /  19.3 km/h 94 % 0.04 in /  1.0 mm
10:02 55.2 °F /  12.9 °C 53.6 °F /  12.0 °C 29.7 in /  1006.3 hPa SSW 9 mph /  14.5 km/h 11 mph /  17.7 km/h 94 % 0.04 in /  1.0 mm
10:12 55.2 °F /  12.9 °C 53.6 °F /  12.0 °C 29.7 in /  1006.7 hPa SSW 7 mph /  11.3 km/h 12 mph /  19.3 km/h 94 % 0.06 in /  1.5 mm
10:17 55.2 °F /  12.9 °C 53.8 °F /  12.1 °C 29.7 in /  1006.7 hPa SSW 6 mph /  9.7 km/h 12 mph /  19.3 km/h 95 % 0.06 in /  1.5 mm
10:27 55.6 °F /  13.1 °C 54.1 °F /  12.3 °C 29.7 in /  1006.7 hPa SSW 6 mph /  9.7 km/h 12 mph /  19.3 km/h 95 % 0.05 in /  1.3 mm
10:32 55.8 °F /  13.2 °C 54.3 °F /  12.4 °C 29.7 in /  1006.7 hPa SW 8 mph /  12.9 km/h 15 mph /  24.1 km/h 95 % 0.04 in /  1.0 mm
10:42 56.7 °F /  13.7 °C 55.2 °F /  12.9 °C 29.7 in /  1006.7 hPa SW 13 mph /  20.9 km/h 15 mph /  24.1 km/h 95 % 0.03 in /  0.8 mm
10:47 57 °F /  13.9 °C 55.2 °F /  12.9 °C 29.7 in /  1006.7 hPa SW 9 mph /  14.5 km/h 15 mph /  24.1 km/h 94 % 0.03 in /  0.8 mm
10:52 57.2 °F /  14.0 °C 55.2 °F /  12.9 °C 29.7 in /  1006.7 hPa SSW 9 mph /  14.5 km/h 15 mph /  24.1 km/h 93 % 0.02 in /  0.5 mm
10:57 57.4 °F /  14.1 °C 55.4 °F /  13.0 °C 29.7 in /  1006.7 hPa South 6 mph /  9.7 km/h 15 mph /  24.1 km/h 93 % 0.02 in /  0.5 mm
11:02 57.4 °F /  14.1 °C 55.4 °F /  13.0 °C 29.7 in /  1006.7 hPa SW 10 mph /  16.1 km/h 15 mph /  24.1 km/h 93 % 0.02 in /  0.5 mm
11:12 57.4 °F /  14.1 °C 55.4 °F /  13.0 °C 29.7 in /  1006.7 hPa WSW 7 mph /  11.3 km/h 15 mph /  24.1 km/h 93 % 0 in /  0.0 mm
11:17 57.4 °F /  14.1 °C 55.4 °F /  13.0 °C 29.7 in /  1006.7 hPa SSW 6 mph /  9.7 km/h 15 mph /  24.1 km/h 93 % 0 in /  0.0 mm
11:22 57.6 °F /  14.2 °C 55.6 °F /  13.1 °C 29.7 in /  1006.7 hPa SW 7 mph /  11.3 km/h 14 mph /  22.5 km/h 93 % 0 in /  0.0 mm
11:32 58.3 °F /  14.6 °C 55.9 °F /  13.3 °C 29.7 in /  1006.7 hPa SW 9 mph /  14.5 km/h 19 mph /  30.6 km/h 92 % 0 in /  0.0 mm
11:37 58.5 °F /  14.7 °C 55.6 °F /  13.1 °C 29.7 in /  1006.7 hPa WSW 11 mph /  17.7 km/h 19 mph /  30.6 km/h 90 % 0 in /  0.0 mm
11:42 58.5 °F /  14.7 °C 55.8 °F /  13.2 °C 29.7 in /  1006.7 hPa SW 11 mph /  17.7 km/h 20 mph /  32.2 km/h 91 % 0 in /  0.0 mm
11:47 58.5 °F /  14.7 °C 55.6 °F /  13.1 °C 29.7 in /  1006.7 hPa WSW 8 mph /  12.9 km/h 20 mph /  32.2 km/h 90 % 0 in /  0.0 mm
11:52 58.6 °F /  14.8 °C 55.8 °F /  13.2 °C 29.7 in /  1007.0 hPa WSW 5 mph /  8.0 km/h 21 mph /  33.8 km/h 90 % 0 in /  0.0 mm
11:57 58.5 °F /  14.7 °C 55.6 °F /  13.1 °C 29.7 in /  1007.0 hPa South 15 mph /  24.1 km/h 21 mph /  33.8 km/h 90 % 0 in /  0.0 mm
12:02 57.9 °F /  14.4 °C 55.2 °F /  12.9 °C 29.7 in /  1007.0 hPa SSW 3 mph /  4.8 km/h 16 mph /  25.7 km/h 91 % 0.01 in /  0.3 mm
12:12 57.4 °F /  14.1 °C 55.4 °F /  13.0 °C 29.7 in /  1007.0 hPa SW 16 mph /  25.7 km/h 16 mph /  25.7 km/h 93 % 0.11 in /  2.8 mm
12:17 57.6 °F /  14.2 °C 55.8 °F /  13.2 °C 29.7 in /  1007.0 hPa WSW 9 mph /  14.5 km/h 15 mph /  24.1 km/h 94 % 0.11 in /  2.8 mm
12:22 57.9 °F /  14.4 °C 56.1 °F /  13.4 °C 29.7 in /  1007.0 hPa SW 10 mph /  16.1 km/h 15 mph /  24.1 km/h 94 % 0.13 in /  3.3 mm
12:32 58.6 °F /  14.8 °C 55.9 °F /  13.3 °C 29.7 in /  1007.0 hPa SSW 7 mph /  11.3 km/h 16 mph /  25.7 km/h 91 % 0.13 in /  3.3 mm
12:37 59 °F /  15.0 °C 56.7 °F /  13.7 °C 29.7 in /  1007.0 hPa South 7 mph /  11.3 km/h 16 mph /  25.7 km/h 92 % 0.13 in /  3.3 mm
12:42 58.6 °F /  14.8 °C 55.9 °F /  13.3 °C 29.7 in /  1007.0 hPa SW 11 mph /  17.7 km/h 16 mph /  25.7 km/h 91 % 0.13 in /  3.3 mm
12:47 57.7 °F /  14.3 °C 55.2 °F /  12.9 °C 29.7 in /  1007.3 hPa SW 13 mph /  20.9 km/h 16 mph /  25.7 km/h 91 % 0.13 in /  3.3 mm
12:52 57.4 °F /  14.1 °C 55 °F /  12.8 °C 29.7 in /  1007.3 hPa WSW 10 mph /  16.1 km/h 16 mph /  25.7 km/h 92 % 0.15 in /  3.8 mm
12:57 57.4 °F /  14.1 °C 55 °F /  12.8 °C 29.7 in /  1007.3 hPa WSW 6 mph /  9.7 km/h 21 mph /  33.8 km/h 92 % 0.15 in /  3.8 mm
13:02 57.6 °F /  14.2 °C 55 °F /  12.8 °C 29.7 in /  1007.3 hPa West 8 mph /  12.9 km/h 21 mph /  33.8 km/h 91 % 0.15 in /  3.8 mm
13:12 58.6 °F /  14.8 °C 56.3 °F /  13.5 °C 29.7 in /  1007.3 hPa SW 8 mph /  12.9 km/h 18 mph /  29.0 km/h 92 % 0.09 in /  2.3 mm
13:17 59 °F /  15.0 °C 56.1 °F /  13.4 °C 29.7 in /  1007.3 hPa West 3 mph /  4.8 km/h 18 mph /  29.0 km/h 90 % 0.09 in /  2.3 mm
13:22 60.1 °F /  15.6 °C 57.4 °F /  14.1 °C 29.7 in /  1007.3 hPa South 4 mph /  6.4 km/h 16 mph /  25.7 km/h 91 % 0.02 in /  0.5 mm
13:32 61 °F /  16.1 °C 56.8 °F /  13.8 °C 29.7 in /  1007.3 hPa WSW 4 mph /  6.4 km/h 18 mph /  29.0 km/h 86 % 0.02 in /  0.5 mm
13:37 59.9 °F /  15.5 °C 55 °F /  12.8 °C 29.8 in /  1007.7 hPa SW 8 mph /  12.9 km/h 18 mph /  29.0 km/h 84 % 0.02 in /  0.5 mm
13:42 58.8 °F /  14.9 °C 55 °F /  12.8 °C 29.7 in /  1007.3 hPa West 10 mph /  16.1 km/h 17 mph /  27.4 km/h 87 % 0.02 in /  0.5 mm
13:52 58.5 °F /  14.7 °C 55.6 °F /  13.1 °C 29.8 in /  1007.7 hPa WSW 3 mph /  4.8 km/h 15 mph /  24.1 km/h 90 % 0 in /  0.0 mm
13:57 58.8 °F /  14.9 °C 56.1 °F /  13.4 °C 29.7 in /  1007.3 hPa WSW 7 mph /  11.3 km/h 15 mph /  24.1 km/h 91 % 0 in /  0.0 mm
14:02 59.4 °F /  15.2 °C 56.5 °F /  13.6 °C 29.7 in /  1007.3 hPa WSW 9 mph /  14.5 km/h 10 mph /  16.1 km/h 90 % 0 in /  0.0 mm
14:12 60.3 °F /  15.7 °C 56.1 °F /  13.4 °C 29.7 in /  1007.3 hPa West 4 mph /  6.4 km/h 12 mph /  19.3 km/h 86 % 0 in /  0.0 mm
14:17 59.2 °F /  15.1 °C 54.7 °F /  12.6 °C 29.7 in /  1007.3 hPa West 6 mph /  9.7 km/h 12 mph /  19.3 km/h 85 % 0 in /  0.0 mm
14:22 58.6 °F /  14.8 °C 55 °F /  12.8 °C 29.7 in /  1007.3 hPa West 13 mph /  20.9 km/h 25 mph /  40.2 km/h 88 % 0 in /  0.0 mm
14:32 57.9 °F /  14.4 °C 55.2 °F /  12.9 °C 29.8 in /  1007.7 hPa West 4 mph /  6.4 km/h 23 mph /  37.0 km/h 91 % 0.01 in /  0.3 mm
14:42 59.5 °F /  15.3 °C 56.7 °F /  13.7 °C 29.8 in /  1007.7 hPa WSW 8 mph /  12.9 km/h 12 mph /  19.3 km/h 90 % 0.01 in /  0.3 mm
14:52 61 °F /  16.1 °C 57 °F /  13.9 °C 29.8 in /  1007.7 hPa West 7 mph /  11.3 km/h 18 mph /  29.0 km/h 87 % 0.01 in /  0.3 mm
14:57 61 °F /  16.1 °C 56.1 °F /  13.4 °C 29.8 in /  1007.7 hPa WSW 7 mph /  11.3 km/h 18 mph /  29.0 km/h 84 % 0.01 in /  0.3 mm
15:02 60.6 °F /  15.9 °C 55.4 °F /  13.0 °C 29.8 in /  1007.7 hPa WSW 5 mph /  8.0 km/h 19 mph /  30.6 km/h 83 % 0.01 in /  0.3 mm
15:12 59.4 °F /  15.2 °C 55.4 °F /  13.0 °C 29.8 in /  1008.0 hPa WSW 8 mph /  12.9 km/h 16 mph /  25.7 km/h 87 % 0.02 in /  0.5 mm
15:22 58.8 °F /  14.9 °C 55.6 °F /  13.1 °C 29.8 in /  1007.7 hPa SW 6 mph /  9.7 km/h 13 mph /  20.9 km/h 89 % 0.04 in /  1.0 mm
15:32 59 °F /  15.0 °C 56.1 °F /  13.4 °C 29.8 in /  1007.7 hPa SSW 3 mph /  4.8 km/h 14 mph /  22.5 km/h 90 % 0.05 in /  1.3 mm
15:37 59.7 °F /  15.4 °C 56.5 °F /  13.6 °C 29.8 in /  1007.7 hPa SW 6 mph /  9.7 km/h 14 mph /  22.5 km/h 89 % 0.05 in /  1.3 mm
15:42 60.8 °F /  16.0 °C 56.8 °F /  13.8 °C 29.8 in /  1007.7 hPa WSW 8 mph /  12.9 km/h 14 mph /  22.5 km/h 87 % 0.05 in /  1.3 mm
15:52 61.9 °F /  16.6 °C 57.4 °F /  14.1 °C 29.8 in /  1007.7 hPa SW 7 mph /  11.3 km/h 13 mph /  20.9 km/h 85 % 0.05 in /  1.3 mm
15:57 61.5 °F /  16.4 °C 56.3 °F /  13.5 °C 29.8 in /  1008.0 hPa SSW 10 mph /  16.1 km/h 15 mph /  24.1 km/h 83 % 0.05 in /  1.3 mm
16:02 61.3 °F /  16.3 °C 56.8 °F /  13.8 °C 29.8 in /  1008.0 hPa West 4 mph /  6.4 km/h 17 mph /  27.4 km/h 85 % 0.05 in /  1.3 mm
16:07 60.8 °F /  16.0 °C 56.7 °F /  13.7 °C 29.8 in /  1008.0 hPa NW 4 mph /  6.4 km/h 17 mph /  27.4 km/h 86 % 0.05 in /  1.3 mm
16:12 60.4 °F /  15.8 °C 55.9 °F /  13.3 °C 29.8 in /  1008.0 hPa WSW 6 mph /  9.7 km/h 17 mph /  27.4 km/h 85 % 0.05 in /  1.3 mm
16:17 59.7 °F /  15.4 °C 55.8 °F /  13.2 °C 29.8 in /  1008.0 hPa SW 8 mph /  12.9 km/h 16 mph /  25.7 km/h 87 % 0.02 in /  0.5 mm
16:22 59.5 °F /  15.3 °C 55.9 °F /  13.3 °C 29.8 in /  1008.0 hPa WSW 4 mph /  6.4 km/h 14 mph /  22.5 km/h 88 % 0.03 in /  0.8 mm
16:27 60.3 °F /  15.7 °C 56.7 °F /  13.7 °C 29.8 in /  1008.0 hPa West 6 mph /  9.7 km/h 13 mph /  20.9 km/h 88 % 0.02 in /  0.5 mm
16:32 61.2 °F /  16.2 °C 57 °F /  13.9 °C 29.8 in /  1008.0 hPa WSW 5 mph /  8.0 km/h 13 mph /  20.9 km/h 86 % 0.02 in /  0.5 mm
16:42 61.2 °F /  16.2 °C 55.9 °F /  13.3 °C 29.8 in /  1008.0 hPa West 5 mph /  8.0 km/h 15 mph /  24.1 km/h 83 % 0.02 in /  0.5 mm
16:52 61.9 °F /  16.6 °C 56.3 °F /  13.5 °C 29.8 in /  1008.0 hPa West 6 mph /  9.7 km/h 17 mph /  27.4 km/h 82 % 0.02 in /  0.5 mm
16:57 62.6 °F /  17.0 °C 57.7 °F /  14.3 °C 29.8 in /  1008.0 hPa WNW 11 mph /  17.7 km/h 13 mph /  20.9 km/h 84 % 0.02 in /  0.5 mm
17:02 62.8 °F /  17.1 °C 56.1 °F /  13.4 °C 29.8 in /  1008.4 hPa WSW 8 mph /  12.9 km/h 16 mph /  25.7 km/h 79 % 0.02 in /  0.5 mm
17:12 59.5 °F /  15.3 °C 53.1 °F /  11.7 °C 29.8 in /  1008.4 hPa West 15 mph /  24.1 km/h 17 mph /  27.4 km/h 79 % 0.02 in /  0.5 mm
17:17 58.5 °F /  14.7 °C 52.7 °F /  11.5 °C 29.8 in /  1008.7 hPa WNW 9 mph /  14.5 km/h 21 mph /  33.8 km/h 81 % 0.02 in /  0.5 mm
17:22 57.7 °F /  14.3 °C 52.7 °F /  11.5 °C 29.8 in /  1008.7 hPa West 6 mph /  9.7 km/h 21 mph /  33.8 km/h 83 % 0 in /  0.0 mm
17:27 57.4 °F /  14.1 °C 52.9 °F /  11.6 °C 29.8 in /  1008.7 hPa West 4 mph /  6.4 km/h 21 mph /  33.8 km/h 85 % 0 in /  0.0 mm
17:32 57 °F /  13.9 °C 52.9 °F /  11.6 °C 29.8 in /  1008.7 hPa WNW 4 mph /  6.4 km/h 19 mph /  30.6 km/h 86 % 0 in /  0.0 mm
17:42 57.7 °F /  14.3 °C 54.1 °F /  12.3 °C 29.8 in /  1008.7 hPa WNW 6 mph /  9.7 km/h 16 mph /  25.7 km/h 88 % 0 in /  0.0 mm
17:47 58.5 °F /  14.7 °C 54.7 °F /  12.6 °C 29.8 in /  1008.7 hPa NW 4 mph /  6.4 km/h 10 mph /  16.1 km/h 87 % 0 in /  0.0 mm
17:52 59.7 °F /  15.4 °C 55.2 °F /  12.9 °C 29.8 in /  1008.7 hPa WSW 9 mph /  14.5 km/h 10 mph /  16.1 km/h 85 % 0 in /  0.0 mm
17:57 60.4 °F /  15.8 °C 54.9 °F /  12.7 °C 29.8 in /  1008.7 hPa West 14 mph /  22.5 km/h 14 mph /  22.5 km/h 82 % 0 in /  0.0 mm
18:07 61.2 °F /  16.2 °C 55.6 °F /  13.1 °C 29.8 in /  1008.7 hPa West 6 mph /  9.7 km/h 17 mph /  27.4 km/h 82 % 0 in /  0.0 mm
18:12 61.3 °F /  16.3 °C 55.8 °F /  13.2 °C 29.8 in /  1008.7 hPa West 4 mph /  6.4 km/h 17 mph /  27.4 km/h 82 % 0 in /  0.0 mm
18:17 61.3 °F /  16.3 °C 55.4 °F /  13.0 °C 29.8 in /  1008.7 hPa West 7 mph /  11.3 km/h 14 mph /  22.5 km/h 81 % 0 in /  0.0 mm
18:22 61.5 °F /  16.4 °C 55.6 °F /  13.1 °C 29.8 in /  1008.7 hPa WSW 11 mph /  17.7 km/h 14 mph /  22.5 km/h 81 % 0 in /  0.0 mm
18:27 61.3 °F /  16.3 °C 55 °F /  12.8 °C 29.8 in /  1008.7 hPa NW 8 mph /  12.9 km/h 14 mph /  22.5 km/h 80 % 0 in /  0.0 mm
18:32 61 °F /  16.1 °C 54.5 °F /  12.5 °C 29.8 in /  1009.0 hPa West 8 mph /  12.9 km/h 14 mph /  22.5 km/h 79 % 0 in /  0.0 mm
18:42 60.6 °F /  15.9 °C 55 °F /  12.8 °C 29.8 in /  1009.0 hPa WSW 12 mph /  19.3 km/h 19 mph /  30.6 km/h 82 % 0 in /  0.0 mm
18:47 60.8 °F /  16.0 °C 54.9 °F /  12.7 °C 29.8 in /  1009.4 hPa West 10 mph /  16.1 km/h 19 mph /  30.6 km/h 81 % 0 in /  0.0 mm
18:57 60.4 °F /  15.8 °C 54 °F /  12.2 °C 29.8 in /  1009.4 hPa WNW 8 mph /  12.9 km/h 17 mph /  27.4 km/h 79 % 0 in /  0.0 mm
19:02 60.4 °F /  15.8 °C 54.5 °F /  12.5 °C 29.8 in /  1009.4 hPa West 5 mph /  8.0 km/h 18 mph /  29.0 km/h 81 % 0 in /  0.0 mm
19:12 60.3 °F /  15.7 °C 53.8 °F /  12.1 °C 29.8 in /  1009.4 hPa South 3 mph /  4.8 km/h 18 mph /  29.0 km/h 79 % 0 in /  0.0 mm
19:17 60.1 °F /  15.6 °C 53.6 °F /  12.0 °C 29.8 in /  1009.4 hPa SW 9 mph /  14.5 km/h 15 mph /  24.1 km/h 79 % 0 in /  0.0 mm
19:22 60.3 °F /  15.7 °C 54.1 °F /  12.3 °C 29.8 in /  1009.7 hPa WSW 5 mph /  8.0 km/h 15 mph /  24.1 km/h 80 % 0 in /  0.0 mm
19:32 60.1 °F /  15.6 °C 54.3 °F /  12.4 °C 29.8 in /  1009.7 hPa SSE 5 mph /  8.0 km/h 15 mph /  24.1 km/h 81 % 0 in /  0.0 mm
19:42 59.7 °F /  15.4 °C 54.1 °F /  12.3 °C 29.8 in /  1010.0 hPa SW 6 mph /  9.7 km/h 12 mph /  19.3 km/h 82 % 0 in /  0.0 mm
19:47 59.5 °F /  15.3 °C 54 °F /  12.2 °C 29.8 in /  1010.0 hPa West 8 mph /  12.9 km/h 13 mph /  20.9 km/h 82 % 0 in /  0.0 mm
19:52 59.4 °F /  15.2 °C 54.1 °F /  12.3 °C 29.8 in /  1010.0 hPa WSW 5 mph /  8.0 km/h 13 mph /  20.9 km/h 83 % 0 in /  0.0 mm
19:57 59.2 °F /  15.1 °C 54 °F /  12.2 °C 29.8 in /  1010.0 hPa WSW 9 mph /  14.5 km/h 13 mph /  20.9 km/h 83 % 0 in /  0.0 mm
20:02 59.4 °F /  15.2 °C 54.1 °F /  12.3 °C 29.8 in /  1010.0 hPa West 3 mph /  4.8 km/h 14 mph /  22.5 km/h 83 % 0 in /  0.0 mm
20:12 59.5 °F /  15.3 °C 54 °F /  12.2 °C 29.8 in /  1010.0 hPa West 7 mph /  11.3 km/h 14 mph /  22.5 km/h 82 % 0 in /  0.0 mm
20:17 59.5 °F /  15.3 °C 54 °F /  12.2 °C 29.8 in /  1010.4 hPa WSW 6 mph /  9.7 km/h 13 mph /  20.9 km/h 82 % 0 in /  0.0 mm
20:22 59.5 °F /  15.3 °C 54 °F /  12.2 °C 29.8 in /  1010.4 hPa WSW 5 mph /  8.0 km/h 13 mph /  20.9 km/h 82 % 0 in /  0.0 mm
20:32 59.5 °F /  15.3 °C 54 °F /  12.2 °C 29.8 in /  1010.4 hPa WSW 5 mph /  8.0 km/h 12 mph /  19.3 km/h 82 % 0 in /  0.0 mm
20:37 59.5 °F /  15.3 °C 54 °F /  12.2 °C 29.8 in /  1010.4 hPa WSW 9 mph /  14.5 km/h 13 mph /  20.9 km/h 82 % 0 in /  0.0 mm
20:42 59.4 °F /  15.2 °C 53.8 °F /  12.1 °C 29.8 in /  1010.7 hPa WSW 4 mph /  6.4 km/h 13 mph /  20.9 km/h 82 % 0 in /  0.0 mm
20:47 59.4 °F /  15.2 °C 53.8 °F /  12.1 °C 29.8 in /  1010.7 hPa WSW 10 mph /  16.1 km/h 12 mph /  19.3 km/h 82 % 0 in /  0.0 mm
20:52 59.2 °F /  15.1 °C 53.6 °F /  12.0 °C 29.8 in /  1010.7 hPa SW 3 mph /  4.8 km/h 10 mph /  16.1 km/h 82 % 0 in /  0.0 mm
21:02 59 °F /  15.0 °C 53.8 °F /  12.1 °C 29.8 in /  1010.7 hPa West 4 mph /  6.4 km/h 11 mph /  17.7 km/h 83 % 0 in /  0.0 mm
21:12 58.1 °F /  14.5 °C 53.6 °F /  12.0 °C 29.9 in /  1011.1 hPa WSW 8 mph /  12.9 km/h 10 mph /  16.1 km/h 85 % 0 in /  0.0 mm
21:17 57.2 °F /  14.0 °C 53.1 °F /  11.7 °C 29.9 in /  1011.1 hPa West 6 mph /  9.7 km/h 16 mph /  25.7 km/h 86 % 0 in /  0.0 mm
21:22 56.7 °F /  13.7 °C 53.1 °F /  11.7 °C 29.9 in /  1011.1 hPa SW 6 mph /  9.7 km/h 17 mph /  27.4 km/h 88 % 0 in /  0.0 mm
21:32 55.9 °F /  13.3 °C 53.1 °F /  11.7 °C 29.9 in /  1011.4 hPa WSW 6 mph /  9.7 km/h 18 mph /  29.0 km/h 90 % 0 in /  0.0 mm
21:42 55.9 °F /  13.3 °C 53.1 °F /  11.7 °C 29.9 in /  1011.4 hPa WSW 7 mph /  11.3 km/h 12 mph /  19.3 km/h 90 % 0 in /  0.0 mm
21:52 55.9 °F /  13.3 °C 53.1 °F /  11.7 °C 29.9 in /  1011.7 hPa SSW 2 mph /  3.2 km/h 9 mph /  14.5 km/h 90 % 0 in /  0.0 mm
21:57 55.9 °F /  13.3 °C 53.1 °F /  11.7 °C 29.9 in /  1011.4 hPa SSW 4 mph /  6.4 km/h 8 mph /  12.9 km/h 90 % 0 in /  0.0 mm
22:02 55.9 °F /  13.3 °C 53.1 °F /  11.7 °C 29.9 in /  1011.7 hPa WSW 4 mph /  6.4 km/h 6 mph /  9.7 km/h 90 % 0 in /  0.0 mm
22:12 55.9 °F /  13.3 °C 53.1 °F /  11.7 °C 29.9 in /  1011.7 hPa SW 3 mph /  4.8 km/h 6 mph /  9.7 km/h 90 % 0 in /  0.0 mm
22:17 56.1 °F /  13.4 °C 53.2 °F /  11.8 °C 29.9 in /  1011.7 hPa SW 3 mph /  4.8 km/h 7 mph /  11.3 km/h 90 % 0 in /  0.0 mm
22:22 56.1 °F /  13.4 °C 53.2 °F /  11.8 °C 29.9 in /  1012.1 hPa West 5 mph /  8.0 km/h 7 mph /  11.3 km/h 90 % 0 in /  0.0 mm
22:27 56.1 °F /  13.4 °C 53.2 °F /  11.8 °C 29.9 in /  1012.1 hPa SW 4 mph /  6.4 km/h 7 mph /  11.3 km/h 90 % 0 in /  0.0 mm
22:32 56.1 °F /  13.4 °C 53.6 °F /  12.0 °C 29.9 in /  1012.1 hPa SW 2 mph /  3.2 km/h 8 mph /  12.9 km/h 91 % 0 in /  0.0 mm
22:37 56.1 °F /  13.4 °C 53.6 °F /  12.0 °C 29.9 in /  1012.1 hPa West 3 mph /  4.8 km/h 8 mph /  12.9 km/h 91 % 0 in /  0.0 mm
22:42 56.1 °F /  13.4 °C 53.6 °F /  12.0 °C 29.9 in /  1012.4 hPa SW 2 mph /  3.2 km/h 8 mph /  12.9 km/h 91 % 0 in /  0.0 mm
22:52 56.1 °F /  13.4 °C 53.6 °F /  12.0 °C 29.9 in /  1012.4 hPa WSW 2 mph /  3.2 km/h 7 mph /  11.3 km/h 91 % 0 in /  0.0 mm
22:57 55.9 °F /  13.3 °C 53.4 °F /  11.9 °C 29.9 in /  1012.4 hPa SW 2 mph /  3.2 km/h 6 mph /  9.7 km/h 91 % 0 in /  0.0 mm
23:02 55.9 °F /  13.3 °C 53.6 °F /  12.0 °C 29.9 in /  1012.4 hPa SW 4 mph /  6.4 km/h 6 mph /  9.7 km/h 92 % 0 in /  0.0 mm
23:07 55.9 °F /  13.3 °C 53.6 °F /  12.0 °C 29.9 in /  1012.4 hPa SW 4 mph /  6.4 km/h 6 mph /  9.7 km/h 92 % 0 in /  0.0 mm
23:12 55.9 °F /  13.3 °C 53.6 °F /  12.0 °C 29.9 in /  1012.8 hPa SW 2 mph /  3.2 km/h 6 mph /  9.7 km/h 92 % 0 in /  0.0 mm
23:17 55.9 °F /  13.3 °C 53.4 °F /  11.9 °C 29.9 in /  1012.8 hPa SW 7 mph /  11.3 km/h 7 mph /  11.3 km/h 91 % 0 in /  0.0 mm
23:22 55.9 °F /  13.3 °C 53.4 °F /  11.9 °C 29.9 in /  1012.8 hPa SW 7 mph /  11.3 km/h 7 mph /  11.3 km/h 91 % 0 in /  0.0 mm
23:32 55.8 °F /  13.2 °C 52.9 °F /  11.6 °C 29.9 in /  1012.8 hPa SW 5 mph /  8.0 km/h 11 mph /  17.7 km/h 90 % 0 in /  0.0 mm
23:37 55.8 °F /  13.2 °C 52.9 °F /  11.6 °C 29.9 in /  1012.8 hPa SW 9 mph /  14.5 km/h 12 mph /  19.3 km/h 90 % 0 in /  0.0 mm
23:42 55.8 °F /  13.2 °C 52.9 °F /  11.6 °C 29.9 in /  1012.8 hPa South 4 mph /  6.4 km/h 12 mph /  19.3 km/h 90 % 0 in /  0.0 mm
23:47 55.6 °F /  13.1 °C 52.7 °F /  11.5 °C 29.9 in /  1012.8 hPa WSW 2 mph /  3.2 km/h 11 mph /  17.7 km/h 90 % 0 in /  0.0 mm
23:52 55.6 °F /  13.1 °C 53.1 °F /  11.7 °C 29.9 in /  1012.8 hPa SW 4 mph /  6.4 km/h 11 mph /  17.7 km/h 91 % 0 in /  0.0 mm
23:57 55.6 °F /  13.1 °C 53.1 °F /  11.7 °C 29.9 in /  1013.1 hPa SSW 3 mph /  4.8 km/h 11 mph /  17.7 km/h 91 % 0 in /  0.0 mm
Meteo18
Compliments of Weather Underground - 4 mb

Script developed by  Jim McMurry - jmcmurry@mwt.net Adapted for the template by  Wim van der Kuil - Leuven-Template.eu

You find our weather info also at:

European Weather Network

Weather Underground

Equipment we use:

Weather-station
Davis Vue

Weather-program
Meteohub

Weather-server
Raspberry PI 2 B+

Provider
1 and 1

Davis Vue

Meteohub

Raspberry PI 2 B+

1 and 1